createdAt,value
2018-01-17T00:00:52.849Z,16.20
2018-01-17T00:01:52.856Z,15.60
2018-01-17T00:02:52.870Z,17.80
2018-01-17T00:03:52.883Z,15.60
2018-01-17T00:04:52.895Z,14.60
2018-01-17T00:05:52.905Z,13.00
2018-01-17T00:06:52.929Z,15.40
2018-01-17T00:07:52.930Z,18.40
2018-01-17T00:08:52.943Z,15.90
2018-01-17T00:09:52.959Z,15.60
2018-01-17T00:10:52.981Z,15.30
2018-01-17T00:11:52.984Z,14.00
2018-01-17T00:12:52.999Z,13.50
2018-01-17T00:13:53.010Z,18.00
2018-01-17T00:14:53.019Z,18.70
2018-01-17T00:15:53.039Z,14.90
2018-01-17T00:16:53.048Z,16.50
2018-01-17T00:17:53.059Z,16.30
2018-01-17T00:18:53.072Z,19.60
2018-01-17T00:19:53.086Z,14.40
2018-01-17T00:20:53.099Z,14.70
2018-01-17T00:21:53.109Z,14.00
2018-01-17T00:22:53.127Z,5.20
2018-01-17T00:23:53.136Z,9.90
2018-01-17T00:24:53.149Z,9.20
2018-01-17T00:25:53.164Z,6.40
2018-01-17T00:26:53.177Z,8.60
2018-01-17T00:27:53.194Z,8.50
2018-01-17T00:28:53.199Z,10.20
2018-01-17T00:29:53.212Z,7.10
2018-01-17T00:30:53.224Z,9.30
2018-01-17T00:31:53.243Z,9.10
2018-01-17T00:32:53.249Z,6.10
2018-01-17T00:33:53.263Z,5.80
2018-01-17T00:34:53.279Z,7.30
2018-01-17T00:35:53.288Z,7.60
2018-01-17T00:36:53.300Z,6.30
2018-01-17T00:37:53.313Z,4.50
2018-01-17T00:38:53.327Z,3.10
2018-01-17T00:39:53.342Z,2.90
2018-01-17T00:40:53.356Z,5.00
2018-01-17T00:41:53.373Z,4.30
2018-01-17T00:42:53.386Z,2.40
2018-01-17T00:43:53.388Z,2.50
2018-01-17T00:44:53.401Z,1.70
2018-01-17T00:45:53.415Z,5.50
2018-01-17T00:46:53.434Z,2.90
2018-01-17T00:47:53.439Z,2.30
2018-01-17T00:48:53.455Z,2.20
2018-01-17T00:49:53.467Z,2.90
2018-01-17T00:50:53.483Z,2.40
2018-01-17T00:51:53.495Z,2.10
2018-01-17T00:52:53.502Z,3.70
2018-01-17T00:53:53.515Z,2.20
2018-01-17T00:54:53.530Z,4.70
2018-01-17T00:55:53.540Z,3.30
2018-01-17T00:56:53.552Z,3.30
2018-01-17T00:57:53.570Z,3.90
2018-01-17T00:58:53.579Z,4.30
2018-01-17T00:59:53.599Z,5.30
2018-01-17T01:00:53.602Z,3.70
2018-01-17T01:01:53.618Z,3.60
2018-01-17T01:02:53.626Z,3.10
2018-01-17T01:03:53.645Z,2.40
2018-01-17T01:04:53.663Z,2.60
2018-01-17T01:05:53.664Z,3.80
2018-01-17T01:06:53.681Z,4.10
2018-01-17T01:07:53.696Z,5.00
2018-01-17T01:08:53.709Z,5.60
2018-01-17T01:09:53.724Z,4.50
2018-01-17T01:10:53.735Z,5.50
2018-01-17T01:11:53.746Z,5.00
2018-01-17T01:12:53.756Z,4.50
2018-01-17T01:13:53.769Z,4.10
2018-01-17T01:14:53.784Z,3.00
2018-01-17T01:15:53.794Z,3.20
2018-01-17T01:16:53.809Z,5.20
2018-01-17T01:17:53.825Z,4.10
2018-01-17T01:18:53.836Z,2.60
2018-01-17T01:19:53.847Z,5.30
2018-01-17T01:20:53.866Z,7.00
2018-01-17T01:21:53.875Z,3.50
2018-01-17T01:22:53.883Z,3.80
2018-01-17T01:23:53.896Z,4.10
2018-01-17T01:24:53.913Z,4.70
2018-01-17T01:25:53.932Z,4.20
2018-01-17T01:26:53.946Z,4.90
2018-01-17T01:27:53.950Z,4.50
2018-01-17T01:28:53.962Z,4.30
2018-01-17T01:29:53.975Z,5.70
2018-01-17T01:30:53.990Z,8.20
2018-01-17T01:31:54.003Z,5.00
2018-01-17T01:32:54.029Z,6.30
2018-01-17T01:33:54.027Z,9.00
2018-01-17T01:34:54.042Z,9.30
2018-01-17T01:35:54.057Z,10.40
2018-01-17T01:36:54.075Z,9.40
2018-01-17T01:37:54.085Z,10.20
2018-01-17T01:38:54.097Z,10.70
2018-01-17T01:39:54.108Z,7.30
2018-01-17T01:40:54.120Z,8.40
2018-01-17T01:41:54.133Z,8.20
2018-01-17T01:42:54.145Z,7.70
2018-01-17T01:43:54.156Z,6.60
2018-01-17T01:44:54.172Z,6.10
2018-01-17T01:45:54.184Z,7.60
2018-01-17T01:46:54.196Z,8.90
2018-01-17T01:47:54.209Z,6.10
2018-01-17T01:48:54.221Z,9.70
2018-01-17T01:49:54.233Z,6.40
2018-01-17T01:50:54.247Z,8.60
2018-01-17T01:51:54.263Z,5.80
2018-01-17T01:52:54.277Z,8.30
2018-01-17T01:53:54.286Z,6.40
2018-01-17T01:54:54.299Z,6.80
2018-01-17T01:55:54.314Z,8.00
2018-01-17T01:56:54.330Z,6.50
2018-01-17T01:57:54.338Z,11.40
2018-01-17T01:58:54.351Z,11.80
2018-01-17T01:59:54.368Z,8.60
2018-01-17T02:00:54.381Z,9.20
2018-01-17T02:01:54.389Z,9.50
2018-01-17T02:02:54.401Z,9.30
2018-01-17T02:03:54.415Z,9.50
2018-01-17T02:04:54.432Z,9.10
2018-01-17T02:05:54.448Z,9.40
2018-01-17T02:06:54.451Z,11.40
2018-01-17T02:07:54.469Z,11.40
2018-01-17T02:08:54.478Z,11.50
2018-01-17T02:09:54.490Z,12.70
2018-01-17T02:10:54.507Z,13.90
2018-01-17T02:11:54.519Z,13.90
2018-01-17T02:12:54.530Z,14.80
2018-01-17T02:13:54.545Z,12.70
2018-01-17T02:14:54.561Z,13.10
2018-01-17T02:15:54.570Z,15.80
2018-01-17T02:16:54.581Z,10.60
2018-01-17T02:17:54.594Z,12.50
2018-01-17T02:18:54.620Z,15.20
2018-01-17T02:19:54.625Z,12.40
2018-01-17T02:20:54.632Z,13.80
2018-01-17T02:21:54.646Z,15.90
2018-01-17T02:22:54.657Z,14.10
2018-01-17T02:23:54.668Z,16.00
2018-01-17T02:24:54.697Z,19.90
2018-01-17T02:25:54.710Z,15.10
2018-01-17T02:26:54.706Z,21.80
2018-01-17T02:27:54.722Z,18.90
2018-01-17T02:28:54.730Z,18.80
2018-01-17T02:29:54.745Z,16.80
2018-01-17T02:30:54.759Z,19.90
2018-01-17T02:31:54.779Z,19.30
2018-01-17T02:32:54.786Z,18.60
2018-01-17T02:33:54.797Z,19.80
2018-01-17T02:34:54.810Z,27.00
2018-01-17T02:35:54.824Z,24.20
2018-01-17T02:36:54.834Z,21.40
2018-01-17T02:37:54.844Z,20.30
2018-01-17T02:38:54.861Z,23.10
2018-01-17T02:39:54.872Z,21.20
2018-01-17T02:40:54.885Z,21.40
2018-01-17T02:41:54.898Z,20.30
2018-01-17T02:42:54.908Z,17.10
2018-01-17T02:43:54.923Z,20.40
2018-01-17T02:44:54.932Z,22.00
2018-01-17T02:45:54.947Z,20.00
2018-01-17T02:46:54.960Z,22.80
2018-01-17T02:47:54.975Z,21.60
2018-01-17T02:48:54.984Z,23.00
2018-01-17T02:49:54.998Z,30.50
2018-01-17T02:50:55.006Z,20.30
2018-01-17T02:51:55.158Z,24.10
2018-01-17T02:52:55.037Z,20.20
2018-01-17T02:53:55.048Z,23.00
2018-01-17T02:54:55.064Z,25.10
2018-01-17T02:55:55.071Z,27.90
2018-01-17T02:56:55.083Z,26.50
2018-01-17T02:57:55.096Z,23.90
2018-01-17T02:58:55.109Z,21.00
2018-01-17T02:59:55.122Z,22.80
2018-01-17T03:00:55.135Z,27.80
2018-01-17T03:01:55.151Z,21.10
2018-01-17T03:02:55.159Z,23.50
2018-01-17T03:03:55.170Z,27.50
2018-01-17T03:04:55.184Z,29.00
2018-01-17T03:05:55.195Z,17.70
2018-01-17T03:06:55.210Z,23.60
2018-01-17T03:07:55.220Z,25.60
2018-01-17T03:08:55.236Z,26.20
2018-01-17T03:09:55.249Z,20.30
2018-01-17T03:10:55.259Z,18.90
2018-01-17T03:11:55.274Z,18.60
2018-01-17T03:12:55.291Z,20.70
2018-01-17T03:13:55.300Z,20.40
2018-01-17T03:14:55.315Z,28.80
2018-01-17T03:15:55.325Z,21.10
2018-01-17T03:16:55.341Z,21.60
2018-01-17T03:17:55.349Z,20.60
2018-01-17T03:18:55.366Z,18.60
2018-01-17T03:19:55.370Z,21.50
2018-01-17T03:20:55.393Z,21.50
2018-01-17T03:21:55.399Z,23.00
2018-01-17T03:22:55.409Z,21.60
2018-01-17T03:23:55.430Z,18.30
2018-01-17T03:24:55.450Z,20.70
2018-01-17T03:25:55.448Z,17.90
2018-01-17T03:26:55.462Z,18.20
2018-01-17T03:27:55.475Z,22.10
2018-01-17T03:28:55.485Z,19.30
2018-01-17T03:29:55.498Z,20.30
2018-01-17T03:30:55.512Z,21.10
2018-01-17T03:31:55.526Z,20.40
2018-01-17T03:32:55.535Z,19.30
2018-01-17T03:33:55.549Z,15.10
2018-01-17T03:34:55.560Z,18.20
2018-01-17T03:35:55.573Z,22.10
2018-01-17T03:36:55.586Z,23.90
2018-01-17T03:37:55.605Z,20.30
2018-01-17T03:38:55.612Z,23.20
2018-01-17T03:39:55.623Z,19.40
2018-01-17T03:40:55.640Z,25.90
2018-01-17T03:41:55.650Z,31.70
2018-01-17T03:42:55.665Z,28.90
2018-01-17T03:43:55.674Z,26.00
2018-01-17T03:44:55.686Z,22.30
2018-01-17T03:45:55.698Z,22.60
2018-01-17T03:46:55.731Z,20.50
2018-01-17T03:47:55.723Z,23.00
2018-01-17T03:48:55.740Z,26.20
2018-01-17T03:49:55.748Z,20.90
2018-01-17T03:50:55.763Z,24.30
2018-01-17T03:51:55.777Z,20.60
2018-01-17T03:52:55.786Z,21.20
2018-01-17T03:53:55.800Z,28.40
2018-01-17T03:54:55.813Z,25.80
2018-01-17T03:55:55.868Z,21.30
2018-01-17T03:56:55.837Z,22.20
2018-01-17T03:57:55.848Z,20.10
2018-01-17T03:58:55.873Z,14.00
2018-01-17T03:59:55.875Z,14.90
2018-01-17T04:00:55.890Z,14.50
2018-01-17T04:01:55.900Z,15.10
2018-01-17T04:02:55.916Z,8.20
2018-01-17T04:03:55.928Z,4.70
2018-01-17T04:04:55.940Z,3.40
2018-01-17T04:05:55.953Z,2.10
2018-01-17T04:06:55.964Z,2.60
2018-01-17T04:07:55.975Z,1.30
2018-01-17T04:08:56.001Z,1.70
2018-01-17T04:09:56.003Z,3.80
2018-01-17T04:10:56.064Z,1.50
2018-01-17T04:11:56.026Z,1.20
2018-01-17T04:12:56.037Z,0.80
2018-01-17T04:13:56.048Z,1.40
2018-01-17T04:14:56.062Z,0.80
2018-01-17T04:15:56.076Z,1.20
2018-01-17T04:16:56.086Z,1.20
2018-01-17T04:17:56.103Z,1.80
2018-01-17T04:18:56.110Z,1.40
2018-01-17T04:19:56.129Z,0.80
2018-01-17T04:20:56.137Z,0.60
2018-01-17T04:21:56.147Z,0.80
2018-01-17T04:22:56.167Z,0.90
2018-01-17T04:23:56.179Z,0.60
2018-01-17T04:24:56.195Z,0.60
2018-01-17T04:25:56.195Z,0.60
2018-01-17T04:26:56.207Z,2.10
2018-01-17T04:27:56.220Z,2.20
2018-01-17T04:28:56.232Z,2.00
2018-01-17T04:29:56.249Z,1.70
2018-01-17T04:30:56.258Z,1.40
2018-01-17T04:31:56.268Z,2.60
2018-01-17T04:32:56.281Z,3.20
2018-01-17T04:33:56.295Z,1.30
2018-01-17T04:34:56.304Z,1.10
2018-01-17T04:35:56.320Z,1.10
2018-01-17T04:36:56.334Z,0.70
2018-01-17T04:37:56.347Z,1.30
2018-01-17T04:38:56.356Z,3.70
2018-01-17T04:39:56.367Z,2.00
2018-01-17T04:40:56.380Z,1.10
2018-01-17T04:41:56.396Z,1.50
2018-01-17T04:42:56.405Z,2.30
2018-01-17T04:43:56.416Z,2.10
2018-01-17T04:44:56.428Z,2.50
2018-01-17T04:45:56.441Z,3.20
2018-01-17T04:46:56.454Z,1.20
2018-01-17T04:47:56.464Z,1.60
2018-01-17T04:48:56.477Z,1.60
2018-01-17T04:49:56.489Z,3.30
2018-01-17T04:50:56.503Z,1.50
2018-01-17T04:51:56.516Z,1.70
2018-01-17T04:52:56.531Z,1.90
2018-01-17T04:53:56.537Z,2.20
2018-01-17T04:54:56.551Z,2.00
2018-01-17T04:55:56.568Z,2.30
2018-01-17T04:56:56.584Z,2.10
2018-01-17T04:57:56.589Z,2.70
2018-01-17T04:58:56.602Z,4.60
2018-01-17T04:59:56.614Z,1.90
2018-01-17T05:00:56.626Z,4.00
2018-01-17T05:01:56.642Z,1.80
2018-01-17T05:02:56.661Z,3.60
2018-01-17T05:03:56.661Z,3.90
2018-01-17T05:04:56.679Z,3.10
2018-01-17T05:05:56.689Z,2.80
2018-01-17T05:06:56.706Z,3.90
2018-01-17T05:07:56.714Z,4.80
2018-01-17T05:08:56.727Z,5.60
2018-01-17T05:09:56.757Z,4.20
2018-01-17T05:10:56.751Z,5.10
2018-01-17T05:11:56.764Z,3.40
2018-01-17T05:12:56.775Z,3.20
2018-01-17T05:13:56.787Z,1.90
2018-01-17T05:14:56.799Z,5.70
2018-01-17T05:15:56.811Z,4.20
2018-01-17T05:16:56.823Z,4.80
2018-01-17T05:17:56.835Z,2.90
2018-01-17T05:18:56.849Z,3.10
2018-01-17T05:19:56.859Z,4.10
2018-01-17T05:20:56.872Z,4.20
2018-01-17T05:21:56.885Z,3.20
2018-01-17T05:22:56.896Z,4.50
2018-01-17T05:23:56.909Z,4.20
2018-01-17T05:24:56.920Z,6.80
2018-01-17T05:25:56.932Z,4.90
2018-01-17T05:26:56.951Z,3.90
2018-01-17T05:27:56.958Z,5.10
2018-01-17T05:28:56.974Z,3.40
2018-01-17T05:29:56.984Z,4.70
2018-01-17T05:30:57.028Z,5.50
2018-01-17T05:31:57.010Z,5.40
2018-01-17T05:32:57.020Z,4.30
2018-01-17T05:33:57.033Z,6.50
2018-01-17T05:34:57.050Z,5.40
2018-01-17T05:35:57.057Z,5.10
2018-01-17T05:36:57.068Z,5.90
2018-01-17T05:37:57.080Z,3.00
2018-01-17T05:38:57.093Z,5.20
2018-01-17T05:39:57.105Z,5.80
2018-01-17T05:40:57.117Z,6.50
2018-01-17T05:41:57.128Z,4.50
2018-01-17T05:42:57.143Z,4.30
2018-01-17T05:43:57.164Z,6.90
2018-01-17T05:44:57.173Z,7.00
2018-01-17T05:45:57.182Z,8.30
2018-01-17T05:46:57.205Z,10.80
2018-01-17T05:47:57.205Z,6.90
2018-01-17T05:48:57.212Z,8.30
2018-01-17T05:49:57.259Z,6.30
2018-01-17T05:50:57.239Z,8.60
2018-01-17T05:51:57.253Z,7.00
2018-01-17T05:52:57.264Z,8.30
2018-01-17T05:53:57.274Z,9.10
2018-01-17T05:54:57.291Z,7.00
2018-01-17T05:55:57.302Z,9.30
2018-01-17T05:56:57.314Z,9.70
2018-01-17T05:57:57.323Z,9.90
2018-01-17T05:58:57.336Z,8.90
2018-01-17T05:59:57.349Z,10.20
2018-01-17T06:00:57.361Z,7.70
2018-01-17T06:01:57.381Z,8.20
2018-01-17T06:02:57.385Z,7.70
2018-01-17T06:03:57.398Z,5.30
2018-01-17T06:04:57.411Z,7.10
2018-01-17T06:05:57.425Z,11.70
2018-01-17T06:06:57.443Z,17.10
2018-01-17T06:07:57.446Z,11.40
2018-01-17T06:08:57.459Z,15.30
2018-01-17T06:09:57.470Z,14.10
2018-01-17T06:10:57.483Z,8.20
2018-01-17T06:11:57.494Z,10.00
2018-01-17T06:12:57.507Z,10.60
2018-01-17T06:13:57.524Z,7.50
2018-01-17T06:14:57.532Z,12.30
2018-01-17T06:15:57.544Z,11.40
2018-01-17T06:16:57.555Z,9.30
2018-01-17T06:17:57.573Z,9.30
2018-01-17T06:18:57.582Z,8.70
2018-01-17T06:19:57.593Z,9.70
2018-01-17T06:20:57.609Z,12.30
2018-01-17T06:21:57.614Z,12.50
2018-01-17T06:22:57.631Z,10.50
2018-01-17T06:23:57.640Z,11.10
2018-01-17T06:24:57.656Z,13.10
2018-01-17T06:25:57.665Z,10.20
2018-01-17T06:26:57.678Z,8.50
2018-01-17T06:27:57.688Z,8.60
2018-01-17T06:28:57.704Z,9.40
2018-01-17T06:29:57.716Z,8.80
2018-01-17T06:30:57.726Z,8.20
2018-01-17T06:31:57.740Z,7.80
2018-01-17T06:32:57.750Z,10.30
2018-01-17T06:33:57.764Z,11.80
2018-01-17T06:34:57.777Z,9.30
2018-01-17T06:35:57.791Z,11.10
2018-01-17T06:36:57.806Z,12.30
2018-01-17T06:37:57.835Z,9.20
2018-01-17T06:38:57.828Z,9.60
2018-01-17T06:39:57.843Z,10.70
2018-01-17T06:40:57.849Z,10.70
2018-01-17T06:41:57.862Z,11.10
2018-01-17T06:42:57.872Z,13.30
2018-01-17T06:43:57.886Z,9.20
2018-01-17T06:44:57.904Z,9.10
2018-01-17T06:45:57.915Z,10.20
2018-01-17T06:46:57.924Z,12.30
2018-01-17T06:47:57.933Z,9.40
2018-01-17T06:48:57.964Z,9.40
2018-01-17T06:49:57.959Z,11.90
2018-01-17T06:50:57.995Z,11.70
2018-01-17T06:51:57.984Z,12.90
2018-01-17T06:52:57.996Z,11.70
2018-01-17T06:53:58.009Z,14.60
2018-01-17T06:54:58.027Z,11.10
2018-01-17T06:55:58.036Z,7.80
2018-01-17T06:56:58.044Z,11.60
2018-01-17T06:57:58.061Z,12.40
2018-01-17T06:58:58.070Z,12.10
2018-01-17T06:59:58.082Z,9.80
2018-01-17T07:00:58.093Z,11.80
2018-01-17T07:01:58.108Z,10.10
2018-01-17T07:02:58.119Z,10.30
2018-01-17T07:03:58.126Z,11.60
2018-01-17T07:04:58.141Z,15.60
2018-01-17T07:05:58.150Z,12.00
2018-01-17T07:06:58.166Z,13.10
2018-01-17T07:07:58.176Z,12.60
2018-01-17T07:08:58.191Z,11.60
2018-01-17T07:09:58.208Z,9.90
2018-01-17T07:10:58.216Z,16.30
2018-01-17T07:11:58.222Z,14.20
2018-01-17T07:12:58.236Z,16.20
2018-01-17T07:13:58.247Z,12.20
2018-01-17T07:14:58.261Z,13.10
2018-01-17T07:15:58.302Z,13.50
2018-01-17T07:16:58.284Z,14.40
2018-01-17T07:17:58.297Z,14.70
2018-01-17T07:18:58.307Z,17.70
2018-01-17T07:19:58.322Z,17.70
2018-01-17T07:20:58.349Z,16.20
2018-01-17T07:21:58.348Z,10.40
2018-01-17T07:22:58.354Z,14.60
2018-01-17T07:23:58.370Z,17.00
2018-01-17T07:24:58.381Z,14.00
2018-01-17T07:25:58.397Z,16.30
2018-01-17T07:26:58.403Z,15.10
2018-01-17T07:27:58.417Z,16.60
2018-01-17T07:28:58.465Z,14.50
2018-01-17T07:29:58.442Z,17.30
2018-01-17T07:30:58.451Z,13.70
2018-01-17T07:31:58.466Z,15.30
2018-01-17T07:32:58.474Z,21.70
2018-01-17T07:33:58.487Z,15.00
2018-01-17T07:34:58.499Z,15.60
2018-01-17T07:35:58.513Z,15.50
2018-01-17T07:36:58.521Z,17.10
2018-01-17T07:37:58.538Z,16.20
2018-01-17T07:38:58.547Z,11.20
2018-01-17T07:39:58.559Z,12.20
2018-01-17T07:40:58.570Z,13.40
2018-01-17T07:41:58.582Z,13.30
2018-01-17T07:42:58.599Z,15.40
2018-01-17T07:43:58.609Z,17.00
2018-01-17T07:44:58.618Z,16.10
2018-01-17T07:45:58.636Z,13.40
2018-01-17T07:46:58.644Z,12.60
2018-01-17T07:47:58.661Z,13.40
2018-01-17T07:48:58.665Z,15.70
2018-01-17T07:49:58.680Z,16.50
2018-01-17T07:50:58.690Z,16.30
2018-01-17T07:51:58.702Z,13.70
2018-01-17T07:52:58.714Z,11.70
2018-01-17T07:53:58.726Z,13.20
2018-01-17T07:54:58.739Z,12.90
2018-01-17T07:55:58.750Z,17.30
2018-01-17T07:56:58.765Z,15.40
2018-01-17T07:57:58.775Z,14.10
2018-01-17T07:58:58.790Z,12.80
2018-01-17T07:59:58.799Z,13.80
2018-01-17T08:00:58.810Z,14.80
2018-01-17T08:01:58.819Z,12.50
2018-01-17T08:02:58.834Z,14.00
2018-01-17T08:03:58.847Z,12.40
2018-01-17T08:04:58.908Z,16.30
2018-01-17T08:05:58.869Z,10.10
2018-01-17T08:06:58.885Z,11.20
2018-01-17T08:07:58.894Z,13.60
2018-01-17T08:08:58.907Z,11.40
2018-01-17T08:09:58.917Z,10.70
2018-01-17T08:10:58.945Z,12.50
2018-01-17T08:11:58.945Z,11.20
2018-01-17T08:12:58.964Z,12.90
2018-01-17T08:13:58.969Z,18.40
2018-01-17T08:14:58.981Z,12.70
2018-01-17T08:15:58.994Z,14.40
2018-01-17T08:16:59.010Z,18.50
2018-01-17T08:17:59.021Z,11.80
2018-01-17T08:18:59.027Z,11.50
2018-01-17T08:19:59.041Z,11.20
2018-01-17T08:20:59.050Z,14.50
2018-01-17T08:21:59.078Z,14.80
2018-01-17T08:22:59.075Z,11.40
2018-01-17T08:23:59.092Z,12.40
2018-01-17T08:24:59.220Z,11.50
2018-01-17T08:25:59.124Z,12.80
2018-01-17T08:26:59.139Z,14.60
2018-01-17T08:27:59.144Z,11.70
2018-01-17T08:28:59.158Z,14.10
2018-01-17T08:29:59.164Z,13.70
2018-01-17T08:30:59.172Z,13.60
2018-01-17T08:31:59.187Z,15.00
2018-01-17T08:32:59.200Z,15.80
2018-01-17T08:33:59.209Z,20.60
2018-01-17T08:34:59.223Z,19.00
2018-01-17T08:35:59.237Z,17.60
2018-01-17T08:36:59.252Z,12.80
2018-01-17T08:37:59.262Z,11.20
2018-01-17T08:38:59.275Z,14.80
2018-01-17T08:39:59.283Z,16.90
2018-01-17T08:40:59.307Z,16.90
2018-01-17T08:41:59.310Z,22.20
2018-01-17T08:42:59.322Z,16.20
2018-01-17T08:43:59.334Z,25.00
2018-01-17T08:44:59.350Z,23.10
2018-01-17T08:45:59.359Z,22.60
2018-01-17T08:46:59.372Z,15.80
2018-01-17T08:47:59.381Z,12.60
2018-01-17T08:48:59.397Z,14.70
2018-01-17T08:49:59.411Z,11.40
2018-01-17T08:50:59.419Z,13.30
2018-01-17T08:51:59.441Z,11.40
2018-01-17T08:52:59.458Z,15.60
2018-01-17T08:53:59.463Z,12.50
2018-01-17T08:54:59.473Z,11.90
2018-01-17T08:55:59.485Z,13.20
2018-01-17T08:56:59.498Z,14.40
2018-01-17T08:57:59.510Z,12.90
2018-01-17T08:58:59.525Z,12.90
2018-01-17T08:59:59.541Z,18.60
2018-01-17T09:00:59.547Z,13.40
2018-01-17T09:01:59.559Z,13.50
2018-01-17T09:02:59.573Z,22.10
2018-01-17T09:03:59.586Z,15.30
2018-01-17T09:04:59.602Z,13.30
2018-01-17T09:05:59.610Z,14.70
2018-01-17T09:06:59.625Z,18.30
2018-01-17T09:07:59.641Z,21.50
2018-01-17T09:08:59.647Z,17.10
2018-01-17T09:09:59.660Z,10.80
2018-01-17T09:10:59.678Z,13.10
2018-01-17T09:11:59.697Z,13.00
2018-01-17T09:12:59.698Z,12.00
2018-01-17T09:13:59.722Z,12.70
2018-01-17T09:14:59.726Z,16.30
2018-01-17T09:15:59.736Z,16.70
2018-01-17T09:16:59.757Z,13.20
2018-01-17T09:17:59.760Z,12.80
2018-01-17T09:18:59.774Z,17.60
2018-01-17T09:19:59.787Z,12.10
2018-01-17T09:20:59.799Z,12.70
2018-01-17T09:21:59.810Z,16.80
2018-01-17T09:22:59.823Z,10.40
2018-01-17T09:23:59.845Z,12.70
2018-01-17T09:24:59.849Z,11.90
2018-01-17T09:25:59.862Z,18.10
2018-01-17T09:26:59.874Z,13.40
2018-01-17T09:27:59.886Z,15.70
2018-01-17T09:28:59.899Z,15.10
2018-01-17T09:29:59.910Z,12.60
2018-01-17T09:30:59.928Z,12.40
2018-01-17T09:31:59.940Z,19.00
2018-01-17T09:32:59.949Z,20.70
2018-01-17T09:33:59.965Z,20.00
2018-01-17T09:34:59.973Z,16.90
2018-01-17T09:35:59.987Z,11.60
2018-01-17T09:37:00.005Z,14.80
2018-01-17T09:38:00.014Z,14.90
2018-01-17T09:39:00.029Z,12.40
2018-01-17T09:40:00.048Z,16.00
2018-01-17T09:41:00.058Z,10.00
2018-01-17T09:42:00.064Z,12.00
2018-01-17T09:43:00.077Z,13.30
2018-01-17T09:44:00.093Z,11.90
2018-01-17T09:45:00.104Z,11.10
2018-01-17T09:46:00.120Z,11.10
2018-01-17T09:47:00.128Z,8.60
2018-01-17T09:48:00.149Z,11.90
2018-01-17T09:49:00.153Z,11.10
2018-01-17T09:50:00.168Z,13.90
2018-01-17T09:51:00.180Z,10.00
2018-01-17T09:52:00.195Z,12.50
2018-01-17T09:53:00.207Z,11.30
2018-01-17T09:54:00.220Z,12.80
2018-01-17T09:55:00.233Z,11.80
2018-01-17T09:56:00.247Z,15.90
2018-01-17T09:57:00.256Z,14.00
2018-01-17T09:58:00.271Z,10.30
2018-01-17T09:59:00.288Z,14.70
2018-01-17T10:00:00.303Z,13.20
2018-01-17T10:01:00.313Z,11.90
2018-01-17T10:02:00.327Z,11.80
2018-01-17T10:03:00.339Z,13.20
2018-01-17T10:04:00.351Z,9.80
2018-01-17T10:05:00.370Z,9.70
2018-01-17T10:06:00.377Z,13.90
2018-01-17T10:07:00.403Z,10.30
2018-01-17T10:08:00.405Z,10.50
2018-01-17T10:09:00.415Z,13.80
2018-01-17T10:10:00.428Z,11.60
2018-01-17T10:11:00.449Z,10.00
2018-01-17T10:12:00.457Z,9.00
2018-01-17T10:13:00.469Z,11.30
2018-01-17T10:14:00.484Z,8.30
2018-01-17T10:15:00.491Z,9.20
2018-01-17T10:16:00.506Z,8.10
2018-01-17T10:17:00.519Z,9.90
2018-01-17T10:18:00.534Z,9.30
2018-01-17T10:19:00.545Z,6.80
2018-01-17T10:20:00.557Z,6.10
2018-01-17T10:21:00.571Z,7.10
2018-01-17T10:22:00.584Z,6.90
2018-01-17T10:23:00.594Z,5.00
2018-01-17T10:24:00.609Z,4.50
2018-01-17T10:25:00.622Z,4.60
2018-01-17T10:26:00.638Z,5.30
2018-01-17T10:27:00.670Z,5.00
2018-01-17T10:28:00.658Z,4.50
2018-01-17T10:29:00.674Z,4.40
2018-01-17T10:30:00.689Z,3.80
2018-01-17T10:31:00.696Z,4.20
2018-01-17T10:32:00.709Z,4.10
2018-01-17T10:33:00.722Z,4.30
2018-01-17T10:34:00.738Z,3.90
2018-01-17T10:35:00.748Z,3.60
2018-01-17T10:36:00.759Z,4.10
2018-01-17T10:37:00.777Z,3.20
2018-01-17T10:38:00.790Z,2.90
2018-01-17T10:39:00.796Z,2.80
2018-01-17T10:40:00.814Z,2.90
2018-01-17T10:41:00.874Z,3.00
2018-01-17T10:42:00.837Z,2.60
2018-01-17T10:43:00.858Z,2.50
2018-01-17T10:44:00.894Z,2.80
2018-01-17T10:45:00.872Z,2.70
2018-01-17T10:46:00.884Z,5.70
2018-01-17T10:47:00.899Z,6.30
2018-01-17T10:48:00.911Z,4.00
2018-01-17T10:49:00.922Z,7.70
2018-01-17T10:50:00.937Z,4.80
2018-01-17T10:51:00.947Z,4.90
2018-01-17T10:52:00.963Z,6.70
2018-01-17T10:53:00.979Z,5.40
2018-01-17T10:54:00.987Z,4.40
2018-01-17T10:55:00.997Z,5.60
2018-01-17T10:56:01.014Z,5.70
2018-01-17T10:57:01.023Z,5.20
2018-01-17T10:58:01.036Z,7.80
2018-01-17T10:59:01.050Z,7.00
2018-01-17T11:00:01.059Z,5.10
2018-01-17T11:01:01.080Z,7.60
2018-01-17T11:02:01.087Z,7.30
2018-01-17T11:03:01.099Z,4.90
2018-01-17T11:04:01.114Z,9.40
2018-01-17T11:05:01.127Z,8.40
2018-01-17T11:06:01.143Z,6.60
2018-01-17T11:07:01.153Z,11.10
2018-01-17T11:08:01.168Z,7.10
2018-01-17T11:09:01.178Z,6.10
2018-01-17T11:10:01.208Z,7.30
2018-01-17T11:11:01.207Z,8.20
2018-01-17T11:12:01.219Z,10.10
2018-01-17T11:13:01.232Z,11.30
2018-01-17T11:14:01.246Z,7.70
2018-01-17T11:15:01.258Z,10.50
2018-01-17T11:16:01.276Z,10.10
2018-01-17T11:17:01.286Z,10.00
2018-01-17T11:18:01.298Z,11.00
2018-01-17T11:19:01.315Z,8.90
2018-01-17T11:20:01.329Z,8.50
2018-01-17T11:21:01.338Z,9.30
2018-01-17T11:22:01.351Z,11.00
2018-01-17T11:23:01.364Z,12.00
2018-01-17T11:24:01.378Z,8.50
2018-01-17T11:25:01.399Z,14.00
2018-01-17T11:26:01.412Z,17.30
2018-01-17T11:27:01.424Z,13.20
2018-01-17T11:28:01.432Z,12.30
2018-01-17T11:29:01.447Z,7.90
2018-01-17T11:30:01.461Z,8.00
2018-01-17T11:31:01.478Z,10.20
2018-01-17T11:32:01.487Z,10.20
2018-01-17T11:33:01.499Z,8.30
2018-01-17T11:34:01.515Z,9.70
2018-01-17T11:35:01.529Z,9.10
2018-01-17T11:36:01.544Z,11.40
2018-01-17T11:37:01.551Z,8.40
2018-01-17T11:38:01.569Z,13.50
2018-01-17T11:39:01.580Z,14.70
2018-01-17T11:40:01.595Z,8.50
2018-01-17T11:41:01.608Z,14.70
2018-01-17T11:42:01.619Z,15.80
2018-01-17T11:43:01.630Z,9.30
2018-01-17T11:44:01.646Z,13.30
2018-01-17T11:45:01.663Z,14.10
2018-01-17T11:46:01.681Z,10.20
2018-01-17T11:47:01.688Z,9.80
2018-01-17T11:48:01.703Z,9.50
2018-01-17T11:49:01.712Z,12.20
2018-01-17T11:50:01.727Z,11.70
2018-01-17T11:51:01.744Z,14.60
2018-01-17T11:52:01.754Z,12.60
2018-01-17T11:53:01.773Z,9.10
2018-01-17T11:54:01.780Z,13.00
2018-01-17T11:55:01.799Z,13.20
2018-01-17T11:56:01.814Z,11.30
2018-01-17T11:57:01.826Z,13.90
2018-01-17T11:58:01.841Z,11.20
2018-01-17T11:59:01.846Z,15.60
2018-01-17T12:00:01.860Z,14.20
2018-01-17T12:01:01.891Z,13.60
2018-01-17T12:02:01.885Z,14.60
2018-01-17T12:03:01.902Z,12.00
2018-01-17T12:04:01.914Z,12.90
2018-01-17T12:05:01.930Z,12.10
2018-01-17T12:06:01.941Z,13.90
2018-01-17T12:07:01.962Z,13.30
2018-01-17T12:08:01.968Z,16.20
2018-01-17T12:09:01.984Z,15.10
2018-01-17T12:10:01.995Z,14.10
2018-01-17T12:11:02.007Z,12.10
2018-01-17T12:12:02.023Z,14.50
2018-01-17T12:13:02.039Z,10.50
2018-01-17T12:14:02.051Z,10.30
2018-01-17T12:15:02.066Z,13.80
2018-01-17T12:16:02.076Z,14.90
2018-01-17T12:17:02.093Z,10.80
2018-01-17T12:18:02.105Z,17.00
2018-01-17T12:19:02.118Z,11.50
2018-01-17T12:20:02.135Z,16.60
2018-01-17T12:21:02.155Z,10.40
2018-01-17T12:22:02.160Z,13.70
2018-01-17T12:23:02.176Z,14.20
2018-01-17T12:24:02.189Z,17.90
2018-01-17T12:25:02.201Z,13.20
2018-01-17T12:26:02.218Z,11.70
2018-01-17T12:27:02.226Z,15.90
2018-01-17T12:28:02.264Z,11.50
2018-01-17T12:29:02.256Z,15.50
2018-01-17T12:30:02.271Z,14.60
2018-01-17T12:31:02.284Z,10.90
2018-01-17T12:32:02.302Z,9.60
2018-01-17T12:33:02.311Z,13.60
2018-01-17T12:34:02.322Z,14.50
2018-01-17T12:35:02.340Z,13.70
2018-01-17T12:36:02.376Z,12.50
2018-01-17T12:37:02.360Z,14.90
2018-01-17T12:38:02.377Z,16.20
2018-01-17T12:39:02.392Z,16.00
2018-01-17T12:40:02.408Z,17.40
2018-01-17T12:41:02.426Z,13.60
2018-01-17T12:42:02.428Z,12.50
2018-01-17T12:43:02.442Z,14.60
2018-01-17T12:44:02.456Z,15.00
2018-01-17T12:45:02.479Z,11.90
2018-01-17T12:46:02.482Z,14.20
2018-01-17T12:47:02.496Z,14.60
2018-01-17T12:48:02.512Z,10.00
2018-01-17T12:49:02.526Z,10.50
2018-01-17T12:50:02.540Z,11.40
2018-01-17T12:51:02.553Z,14.30
2018-01-17T12:52:02.565Z,14.30
2018-01-17T12:53:02.583Z,12.60
2018-01-17T12:54:02.595Z,11.00
2018-01-17T12:55:02.606Z,9.50
2018-01-17T12:56:02.619Z,11.40
2018-01-17T12:57:02.634Z,14.30
2018-01-17T12:58:02.645Z,11.90
2018-01-17T12:59:02.710Z,15.20
2018-01-17T13:00:02.671Z,17.00
2018-01-17T13:01:02.697Z,13.80
2018-01-17T13:02:02.818Z,12.30
2018-01-17T13:03:02.711Z,14.60
2018-01-17T13:04:02.730Z,16.50